createdAt,value
2022-12-23T00:01:27.137Z,97.98
2022-12-23T00:04:00.815Z,98.06
2022-12-23T00:06:29.132Z,98.20
2022-12-23T00:08:59.353Z,98.22
2022-12-23T00:11:28.871Z,98.32
2022-12-23T00:14:21.052Z,98.36
2022-12-23T00:16:50.838Z,98.39
2022-12-23T00:19:20.872Z,98.45
2022-12-23T00:21:49.562Z,98.47
2022-12-23T00:24:17.705Z,98.51
2022-12-23T00:26:45.787Z,98.46
2022-12-23T00:29:14.022Z,98.51
2022-12-23T00:31:42.287Z,98.53
2022-12-23T00:34:11.873Z,98.53
2022-12-23T00:36:41.501Z,98.55
2022-12-23T00:39:29.983Z,98.57
2022-12-23T00:42:15.578Z,98.62
2022-12-23T00:44:43.711Z,98.59
2022-12-23T00:47:32.163Z,98.55
2022-12-23T00:49:59.488Z,98.49
2022-12-23T00:52:29.067Z,98.38
2022-12-23T00:54:57.263Z,98.34
2022-12-23T00:57:25.384Z,98.37
2022-12-23T00:59:53.552Z,98.44
2022-12-23T01:02:39.114Z,98.43
2022-12-23T01:08:22.624Z,98.55
2022-12-23T01:10:50.690Z,98.63
2022-12-23T01:13:18.910Z,98.61
2022-12-23T01:15:47.522Z,98.55
2022-12-23T01:18:15.767Z,98.53
2022-12-23T01:20:43.891Z,98.51
2022-12-23T01:23:12.038Z,98.59
2022-12-23T01:25:41.646Z,98.61
2022-12-23T01:28:09.793Z,98.62
2022-12-23T01:30:39.209Z,98.59
2022-12-23T01:33:07.626Z,98.54
2022-12-23T01:35:37.854Z,98.54
2022-12-23T01:38:05.986Z,98.53
2022-12-23T01:40:36.355Z,98.41
2022-12-23T01:43:04.850Z,98.31
2022-12-23T01:45:34.211Z,98.22
2022-12-23T01:48:04.863Z,98.13
2022-12-23T01:50:36.201Z,98.13
2022-12-23T01:53:08.626Z,98.25
2022-12-23T01:55:43.286Z,98.34
2022-12-23T01:58:16.547Z,98.23
2022-12-23T02:01:27.935Z,98.23
2022-12-23T02:04:04.336Z,98.21
2022-12-23T02:06:55.113Z,98.11
2022-12-23T02:09:25.364Z,98.11
2022-12-23T02:12:15.923Z,98.22
2022-12-23T02:15:19.189Z,98.29
2022-12-23T02:17:59.033Z,98.34
2022-12-23T02:20:52.420Z,98.45
2022-12-23T02:23:54.197Z,98.51
2022-12-23T02:26:44.793Z,98.52
2022-12-23T02:29:46.388Z,98.64
2022-12-23T02:32:21.763Z,98.62
2022-12-23T02:34:55.813Z,98.57
2022-12-23T02:37:30.533Z,98.63
2022-12-23T02:40:05.951Z,98.60
2022-12-23T02:42:38.365Z,98.44
2022-12-23T02:45:11.288Z,98.30
2022-12-23T02:47:52.629Z,98.08
2022-12-23T02:50:25.264Z,98.01
2022-12-23T02:52:55.890Z,98.09
2022-12-23T02:55:29.125Z,98.15
2022-12-23T02:58:00.879Z,98.14
2022-12-23T03:00:29.154Z,98.08
2022-12-23T03:02:59.459Z,97.72
2022-12-23T03:05:30.668Z,97.47
2022-12-23T03:08:03.082Z,97.35
2022-12-23T03:10:42.807Z,97.49
2022-12-23T03:13:22.798Z,97.43
2022-12-23T03:15:58.373Z,97.74
2022-12-23T03:18:38.058Z,97.82
2022-12-23T03:21:12.682Z,98.13
2022-12-23T03:23:49.142Z,98.19
2022-12-23T03:26:23.383Z,98.21
2022-12-23T03:29:01.728Z,98.29
2022-12-23T03:31:32.599Z,98.19
2022-12-23T03:34:06.751Z,98.17
2022-12-23T03:36:38.287Z,98.19
2022-12-23T03:39:11.916Z,98.15
2022-12-23T03:41:45.671Z,98.03
2022-12-23T03:44:17.581Z,97.95
2022-12-23T03:46:50.197Z,98.03
2022-12-23T03:49:28.387Z,98.05
2022-12-23T03:52:01.529Z,98.02
2022-12-23T03:54:36.129Z,97.98
2022-12-23T03:57:07.874Z,97.96
2022-12-23T03:59:39.020Z,97.99
2022-12-23T04:02:17.882Z,98.04
2022-12-23T04:05:05.084Z,98.06
2022-12-23T04:07:38.551Z,98.06
2022-12-23T04:10:08.775Z,98.06
2022-12-23T04:12:38.992Z,98.01
2022-12-23T04:15:12.874Z,98.03
2022-12-23T04:17:41.736Z,98.06
2022-12-23T04:20:12.117Z,98.11
2022-12-23T04:22:43.492Z,98.09
2022-12-23T04:25:11.876Z,98.02
2022-12-23T04:27:40.309Z,97.91
2022-12-23T04:30:10.420Z,97.93
2022-12-23T04:32:39.423Z,97.87
2022-12-23T04:35:08.375Z,97.91
2022-12-23T04:37:38.384Z,97.92
2022-12-23T04:40:07.992Z,97.90
2022-12-23T04:42:36.443Z,97.85
2022-12-23T04:45:05.188Z,97.86
2022-12-23T04:47:33.422Z,97.83
2022-12-23T04:50:01.525Z,97.77
2022-12-23T04:52:29.693Z,97.78
2022-12-23T04:54:59.292Z,97.63
2022-12-23T04:57:27.509Z,97.61
2022-12-23T04:59:55.666Z,97.50
2022-12-23T05:02:23.983Z,97.49
2022-12-23T05:04:52.238Z,97.41
2022-12-23T05:07:20.422Z,97.38
2022-12-23T05:09:48.776Z,97.35
2022-12-23T05:12:18.721Z,97.35
2022-12-23T05:14:47.358Z,97.32
2022-12-23T05:17:15.451Z,97.30
2022-12-23T05:19:43.718Z,97.34
2022-12-23T05:22:11.863Z,97.38
2022-12-23T05:24:40.037Z,97.30
2022-12-23T05:27:08.193Z,97.23
2022-12-23T05:29:37.647Z,97.19
2022-12-23T05:32:06.428Z,97.15
2022-12-23T05:34:34.635Z,97.29
2022-12-23T05:37:02.814Z,97.38
2022-12-23T05:39:30.952Z,97.46
2022-12-23T05:41:59.085Z,97.51
2022-12-23T05:44:27.223Z,97.54
2022-12-23T05:46:56.701Z,97.56
2022-12-23T05:49:25.461Z,97.44
2022-12-23T05:51:53.633Z,97.43
2022-12-23T05:54:21.714Z,97.42
2022-12-23T05:56:49.836Z,97.43
2022-12-23T05:59:18.133Z,97.37
2022-12-23T06:01:46.377Z,97.32
2022-12-23T06:04:16.112Z,97.25
2022-12-23T06:06:44.261Z,97.19
2022-12-23T06:09:12.470Z,97.16
2022-12-23T06:11:40.587Z,97.11
2022-12-23T06:14:09.133Z,97.19
2022-12-23T06:16:37.417Z,97.15
2022-12-23T06:19:05.695Z,97.13
2022-12-23T06:21:41.231Z,97.22
2022-12-23T06:24:10.000Z,97.28
2022-12-23T06:26:38.113Z,97.30
2022-12-23T06:29:06.313Z,97.27
2022-12-23T06:31:34.544Z,97.28
2022-12-23T06:34:02.719Z,97.40
2022-12-23T06:36:30.858Z,97.54
2022-12-23T06:39:00.480Z,97.60
2022-12-23T06:41:28.611Z,97.55
2022-12-23T06:43:56.846Z,97.50
2022-12-23T06:46:24.996Z,97.49
2022-12-23T06:48:53.201Z,97.53
2022-12-23T06:51:21.662Z,97.51
2022-12-23T06:53:50.046Z,97.68
2022-12-23T06:56:19.701Z,97.69
2022-12-23T06:58:47.959Z,97.64
2022-12-23T07:01:16.255Z,97.73
2022-12-23T07:03:44.484Z,97.74
2022-12-23T07:06:12.969Z,97.70
2022-12-23T07:08:41.219Z,97.66
2022-12-23T07:11:09.794Z,97.81
2022-12-23T07:13:39.464Z,97.78
2022-12-23T07:16:09.324Z,97.71
2022-12-23T07:18:37.545Z,97.73
2022-12-23T07:21:10.141Z,97.65
2022-12-23T07:23:43.979Z,97.59
2022-12-23T07:26:12.213Z,97.57
2022-12-23T07:28:41.896Z,97.51
2022-12-23T07:31:10.077Z,97.47
2022-12-23T07:33:38.273Z,97.41
2022-12-23T07:36:06.984Z,97.41
2022-12-23T07:38:35.236Z,97.43
2022-12-23T07:41:03.406Z,97.51
2022-12-23T07:43:38.027Z,97.51
2022-12-23T07:46:11.227Z,97.48
2022-12-23T07:48:41.696Z,97.41
2022-12-23T07:51:10.402Z,97.28
2022-12-23T07:53:38.584Z,97.16
2022-12-23T07:56:07.534Z,97.35
2022-12-23T07:58:35.688Z,97.48
2022-12-23T08:01:06.257Z,97.49
2022-12-23T08:03:36.411Z,97.44
2022-12-23T08:06:06.847Z,97.43
2022-12-23T08:08:35.483Z,97.57
2022-12-23T08:11:05.415Z,97.50
2022-12-23T08:13:34.933Z,97.43
2022-12-23T08:16:04.403Z,97.41
2022-12-23T08:18:34.307Z,97.54
2022-12-23T08:21:05.934Z,97.61
2022-12-23T08:23:35.145Z,97.62
2022-12-23T08:26:08.275Z,97.59
2022-12-23T08:28:37.663Z,97.62
2022-12-23T08:31:07.920Z,97.58
2022-12-23T08:33:38.305Z,97.58
2022-12-23T08:36:10.258Z,97.57
2022-12-23T08:38:38.536Z,97.51
2022-12-23T08:41:10.606Z,97.51
2022-12-23T08:43:38.911Z,97.50
2022-12-23T08:46:07.827Z,97.51
2022-12-23T08:48:37.047Z,97.52
2022-12-23T08:51:09.703Z,97.44
2022-12-23T08:53:39.867Z,97.39
2022-12-23T08:56:10.892Z,97.29
2022-12-23T08:58:39.512Z,97.28
2022-12-23T09:01:09.949Z,97.44
2022-12-23T09:03:39.226Z,97.40
2022-12-23T09:06:10.802Z,97.38
2022-12-23T09:08:39.351Z,97.29
2022-12-23T09:11:10.172Z,97.12
2022-12-23T09:13:38.819Z,97.09
2022-12-23T09:16:08.185Z,97.14
2022-12-23T09:18:37.004Z,97.29
2022-12-23T09:21:06.891Z,97.36
2022-12-23T09:23:36.448Z,97.37
2022-12-23T09:26:05.744Z,97.36
2022-12-23T09:28:33.900Z,97.37
2022-12-23T09:31:08.205Z,97.30
2022-12-23T09:33:36.446Z,97.16
2022-12-23T09:36:06.445Z,97.10
2022-12-23T09:38:36.349Z,97.03
2022-12-23T09:41:07.731Z,97.04
2022-12-23T09:43:48.772Z,97.12
2022-12-23T09:46:20.192Z,97.21
2022-12-23T09:49:01.972Z,97.18
2022-12-23T09:51:31.788Z,97.26
2022-12-23T09:54:14.954Z,97.23
2022-12-23T09:56:49.956Z,97.20
2022-12-23T09:59:29.238Z,97.32
2022-12-23T10:02:01.989Z,97.27
2022-12-23T10:04:48.115Z,97.21
2022-12-23T10:07:28.487Z,97.08
2022-12-23T10:09:59.715Z,97.08
2022-12-23T10:12:41.897Z,97.22
2022-12-23T10:15:21.380Z,97.23
2022-12-23T10:17:52.989Z,97.20
2022-12-23T10:20:36.502Z,97.21
2022-12-23T10:23:10.005Z,97.30
2022-12-23T10:25:46.389Z,97.23
2022-12-23T10:28:14.570Z,97.17
2022-12-23T10:33:46.226Z,97.10
2022-12-23T10:36:19.623Z,97.25
2022-12-23T10:38:54.630Z,97.22
2022-12-23T10:41:37.917Z,97.49
2022-12-23T10:44:44.685Z,97.45
2022-12-23T10:47:23.240Z,97.48
2022-12-23T10:50:04.322Z,97.36
2022-12-23T10:52:37.293Z,97.40
2022-12-23T10:55:06.980Z,97.39
2022-12-23T10:57:42.506Z,97.36
2022-12-23T11:00:19.493Z,97.50
2022-12-23T11:02:58.499Z,97.54
2022-12-23T11:05:31.851Z,97.53
2022-12-23T11:08:03.110Z,97.54
2022-12-23T11:10:36.492Z,97.47
2022-12-23T11:13:06.505Z,97.31
2022-12-23T11:15:36.302Z,97.25
2022-12-23T11:18:08.378Z,97.20
2022-12-23T11:20:37.863Z,97.22
2022-12-23T11:23:08.309Z,97.29
2022-12-23T11:25:39.165Z,97.16
2022-12-23T11:28:15.093Z,97.19
2022-12-23T11:30:55.100Z,97.09
2022-12-23T11:33:27.263Z,96.96
2022-12-23T11:36:08.037Z,96.98
2022-12-23T11:38:38.286Z,97.03
2022-12-23T11:41:07.131Z,97.03
2022-12-23T11:43:39.261Z,97.00
2022-12-23T11:46:19.522Z,97.12
2022-12-23T11:48:54.415Z,97.10
2022-12-23T11:51:27.960Z,97.26
2022-12-23T11:54:01.453Z,97.27
2022-12-23T11:56:33.512Z,97.36
2022-12-23T11:59:07.431Z,97.23
2022-12-23T12:01:37.699Z,97.14
2022-12-23T12:04:10.324Z,97.08
2022-12-23T12:06:49.615Z,97.30
2022-12-23T12:09:23.783Z,97.27
2022-12-23T12:11:57.838Z,97.29
2022-12-23T12:14:39.098Z,97.26
2022-12-23T12:17:16.671Z,97.15
2022-12-23T12:20:01.600Z,97.02
2022-12-23T12:22:38.968Z,96.87
2022-12-23T12:25:19.728Z,96.98
2022-12-23T12:27:53.311Z,96.93
2022-12-23T12:30:27.389Z,97.00
2022-12-23T12:33:00.894Z,97.25
2022-12-23T12:35:37.852Z,97.18
2022-12-23T12:38:14.231Z,97.06
2022-12-23T12:40:46.664Z,97.12
2022-12-23T12:43:25.438Z,97.13
2022-12-23T12:46:17.557Z,97.32
2022-12-23T12:48:51.753Z,97.28
2022-12-23T12:51:25.836Z,97.34
2022-12-23T12:54:05.859Z,97.27
2022-12-23T12:56:41.642Z,97.34
2022-12-23T12:59:17.216Z,97.22
2022-12-23T13:02:17.438Z,97.01
2022-12-23T13:05:17.989Z,96.99
2022-12-23T13:07:58.636Z,97.08
2022-12-23T13:10:38.577Z,97.07
2022-12-23T13:13:16.691Z,96.94
2022-12-23T13:15:50.114Z,97.04
2022-12-23T13:18:31.465Z,97.01
2022-12-23T13:21:05.629Z,97.04
2022-12-23T13:23:44.160Z,97.10
2022-12-23T13:26:21.479Z,97.21
2022-12-23T13:28:59.086Z,97.32
2022-12-23T13:31:36.955Z,97.10
2022-12-23T13:34:28.773Z,96.96
2022-12-23T13:37:06.319Z,96.80
2022-12-23T13:39:47.412Z,96.64
2022-12-23T13:42:29.558Z,96.61
2022-12-23T13:44:58.851Z,96.65
2022-12-23T13:47:35.491Z,96.77
2022-12-23T13:50:13.311Z,96.82
2022-12-23T13:52:57.149Z,96.81
2022-12-23T13:55:40.234Z,96.95
2022-12-23T13:58:14.625Z,97.04
2022-12-23T14:00:42.942Z,97.13
2022-12-23T14:03:34.265Z,97.03
2022-12-23T14:06:22.229Z,97.27
2022-12-23T14:08:51.959Z,97.43
2022-12-23T14:11:23.493Z,97.42
2022-12-23T14:13:57.221Z,97.50
2022-12-23T14:16:35.443Z,97.51
2022-12-23T14:19:35.751Z,97.39
2022-12-23T14:22:17.389Z,97.52
2022-12-23T14:25:21.548Z,97.54
2022-12-23T14:27:59.641Z,97.52
2022-12-23T14:30:36.393Z,97.34
2022-12-23T14:33:14.927Z,97.37
2022-12-23T14:36:14.923Z,97.39
2022-12-23T14:39:22.887Z,97.42
2022-12-23T14:41:52.423Z,97.43
2022-12-23T14:44:22.463Z,97.26
2022-12-23T14:46:55.821Z,97.20
2022-12-23T14:49:44.028Z,97.19
2022-12-23T14:52:48.216Z,97.02
2022-12-23T14:55:46.964Z,96.97
2022-12-23T14:58:38.874Z,97.43
2022-12-23T15:01:13.110Z,97.27
2022-12-23T15:03:48.197Z,97.27
2022-12-23T15:06:24.681Z,97.36
2022-12-23T15:08:54.582Z,97.58
2022-12-23T15:11:28.342Z,97.70
2022-12-23T15:13:59.339Z,97.42
2022-12-23T15:16:33.062Z,97.45
2022-12-23T15:19:14.522Z,97.65
2022-12-23T15:21:44.945Z,97.37
2022-12-23T15:24:17.459Z,97.64
2022-12-23T15:27:09.680Z,97.48
2022-12-23T15:29:41.973Z,97.46
2022-12-23T15:32:12.394Z,97.64
2022-12-23T15:34:40.780Z,97.63
2022-12-23T15:37:12.232Z,97.74
2022-12-23T15:39:43.820Z,97.65
2022-12-23T15:42:24.359Z,97.60
2022-12-23T15:44:52.952Z,97.68
2022-12-23T15:47:28.266Z,97.58
2022-12-23T15:49:57.401Z,97.63
2022-12-23T15:52:25.813Z,97.83
2022-12-23T15:54:58.492Z,97.97
2022-12-23T15:57:30.447Z,97.96
2022-12-23T15:59:59.951Z,97.76
2022-12-23T16:02:59.882Z,97.85
2022-12-23T16:05:27.256Z,97.86
2022-12-23T16:08:10.392Z,97.79
2022-12-23T16:10:39.718Z,97.70
2022-12-23T16:13:18.182Z,97.89
2022-12-23T16:15:47.232Z,98.09
2022-12-23T16:18:23.590Z,98.37
2022-12-23T16:20:54.054Z,98.33
2022-12-23T16:23:22.745Z,98.51
2022-12-23T16:25:53.985Z,98.76
2022-12-23T16:28:28.867Z,98.82
2022-12-23T16:30:59.179Z,98.85
2022-12-23T16:33:36.213Z,98.89
2022-12-23T16:36:23.653Z,98.79
2022-12-23T16:39:00.959Z,98.82
2022-12-23T16:41:29.050Z,98.85
2022-12-23T16:43:59.341Z,98.76
2022-12-23T16:46:28.242Z,98.73
2022-12-23T16:48:59.416Z,98.50
2022-12-23T16:51:29.117Z,98.28
2022-12-23T16:53:58.906Z,98.18
2022-12-23T16:56:30.790Z,98.07
2022-12-23T16:59:00.349Z,97.92
2022-12-23T17:01:30.838Z,97.99
2022-12-23T17:03:59.165Z,97.88
2022-12-23T17:06:27.730Z,97.93
2022-12-23T17:08:56.859Z,98.11
2022-12-23T17:11:29.740Z,98.18
2022-12-23T17:14:03.464Z,98.10
2022-12-23T17:16:35.183Z,97.90
2022-12-23T17:19:05.495Z,97.46
2022-12-23T17:21:36.825Z,97.31
2022-12-23T17:24:07.881Z,97.43
2022-12-23T17:26:36.102Z,97.30
2022-12-23T17:29:04.875Z,96.73
2022-12-23T17:31:35.386Z,96.44
2022-12-23T17:34:03.928Z,96.92
2022-12-23T17:36:32.076Z,97.10
2022-12-23T17:39:00.214Z,97.33
2022-12-23T17:41:31.377Z,97.29
2022-12-23T17:43:59.991Z,97.36
2022-12-23T17:46:30.599Z,97.06
2022-12-23T17:49:00.283Z,97.30
2022-12-23T17:51:28.428Z,97.47
2022-12-23T17:53:58.334Z,97.39
2022-12-23T17:56:28.823Z,97.26
2022-12-23T17:58:57.144Z,97.24
2022-12-23T18:01:27.696Z,97.20
2022-12-23T18:03:56.865Z,97.35
2022-12-23T18:06:29.058Z,97.62
2022-12-23T18:08:58.040Z,98.02
2022-12-23T18:11:33.933Z,98.17
2022-12-23T18:14:02.642Z,98.04
2022-12-23T18:16:30.977Z,97.96
2022-12-23T18:18:59.232Z,98.03
2022-12-23T18:21:30.144Z,98.12
2022-12-23T18:24:00.785Z,97.97
2022-12-23T18:26:33.447Z,97.52
2022-12-23T18:29:02.947Z,97.20
2022-12-23T18:31:31.592Z,97.17
2022-12-23T18:34:00.241Z,97.02
2022-12-23T18:36:32.254Z,96.81
2022-12-23T18:39:01.450Z,97.07
2022-12-23T18:41:29.856Z,97.29
2022-12-23T18:43:58.482Z,97.61
2022-12-23T18:46:26.663Z,97.96
2022-12-23T18:48:57.083Z,98.07
2022-12-23T18:51:25.788Z,98.21
2022-12-23T18:53:55.457Z,98.48
2022-12-23T18:56:24.204Z,98.55
2022-12-23T18:58:52.306Z,98.47
2022-12-23T19:01:20.603Z,98.56
2022-12-23T19:03:49.073Z,98.46
2022-12-23T19:06:17.853Z,98.35
2022-12-23T19:08:46.419Z,97.96
2022-12-23T19:11:18.862Z,98.22
2022-12-23T19:13:47.990Z,98.33
2022-12-23T19:16:17.492Z,98.24
2022-12-23T19:18:46.134Z,98.01
2022-12-23T19:21:14.568Z,97.76
2022-12-23T19:23:43.126Z,97.63
2022-12-23T19:26:12.367Z,97.52
2022-12-23T19:28:43.101Z,97.53
2022-12-23T19:31:13.543Z,97.39
2022-12-23T19:33:43.183Z,97.24
2022-12-23T19:36:11.916Z,97.27
2022-12-23T19:38:40.579Z,97.34
2022-12-23T19:41:09.540Z,97.41
2022-12-23T19:43:39.988Z,97.44
2022-12-23T19:46:13.201Z,97.52
2022-12-23T19:48:41.481Z,97.63
2022-12-23T19:51:11.205Z,97.79
2022-12-23T19:53:40.174Z,97.80
2022-12-23T19:56:11.701Z,97.85
2022-12-23T19:58:42.011Z,98.09
2022-12-23T20:01:14.495Z,98.24
2022-12-23T20:03:43.614Z,98.27
2022-12-23T20:06:18.675Z,98.22
2022-12-23T20:08:47.283Z,98.10
2022-12-23T20:11:17.024Z,98.17
2022-12-23T20:13:45.195Z,98.17
2022-12-23T20:16:15.105Z,98.27
2022-12-23T20:18:43.385Z,98.34
2022-12-23T20:21:11.667Z,98.34
2022-12-23T20:23:42.045Z,98.30
2022-12-23T20:26:11.822Z,98.33
2022-12-23T20:28:40.243Z,98.26
2022-12-23T20:31:10.661Z,98.24
2022-12-23T20:33:44.925Z,98.21
2022-12-23T20:36:15.004Z,98.19
2022-12-23T20:38:45.035Z,97.99
2022-12-23T20:41:17.505Z,98.05
2022-12-23T20:44:23.495Z,98.17
2022-12-23T20:46:42.439Z,98.22
2022-12-23T20:49:12.822Z,98.32
2022-12-23T20:51:41.090Z,98.50
2022-12-23T20:54:09.423Z,98.57
2022-12-23T20:56:37.752Z,98.52
2022-12-23T20:59:06.022Z,98.62
2022-12-23T21:01:36.354Z,98.62
2022-12-23T21:04:06.996Z,98.68
2022-12-23T21:06:37.521Z,98.65
2022-12-23T21:09:07.377Z,98.53
2022-12-23T21:11:38.778Z,98.34
2022-12-23T21:14:07.808Z,98.16
2022-12-23T21:16:37.230Z,98.00
2022-12-23T21:19:06.643Z,97.65
2022-12-23T21:21:36.912Z,97.39
2022-12-23T21:24:05.931Z,96.99
2022-12-23T21:26:35.971Z,96.81
2022-12-23T21:29:06.555Z,96.87
2022-12-23T21:31:36.279Z,97.00
2022-12-23T21:34:04.701Z,97.16
2022-12-23T21:36:35.584Z,97.32
2022-12-23T21:39:06.106Z,97.43
2022-12-23T21:41:37.259Z,97.65
2022-12-23T21:44:06.752Z,97.68
2022-12-23T21:46:35.068Z,97.77
2022-12-23T21:49:03.802Z,97.86
2022-12-23T21:51:39.721Z,97.88
2022-12-23T21:54:11.122Z,97.96
2022-12-23T21:56:41.341Z,98.06
2022-12-23T21:59:13.135Z,98.01
2022-12-23T22:01:41.914Z,97.88
2022-12-23T22:04:10.877Z,97.74
2022-12-23T22:06:43.483Z,97.83
2022-12-23T22:09:15.861Z,97.98
2022-12-23T22:11:44.808Z,98.07
2022-12-23T22:14:15.489Z,98.20
2022-12-23T22:16:44.197Z,98.34
2022-12-23T22:19:13.367Z,98.47
2022-12-23T22:21:42.800Z,98.54
2022-12-23T22:24:12.630Z,98.58
2022-12-23T22:26:41.464Z,98.62
2022-12-23T22:29:09.684Z,98.62
2022-12-23T22:31:40.895Z,98.66
2022-12-23T22:34:09.993Z,98.76
2022-12-23T22:36:38.174Z,98.79
2022-12-23T22:39:07.781Z,98.89
2022-12-23T22:41:37.684Z,98.98
2022-12-23T22:44:06.192Z,99.08
2022-12-23T22:46:34.516Z,99.12
2022-12-23T22:49:02.854Z,99.12
2022-12-23T22:51:32.277Z,99.15
2022-12-23T22:54:02.798Z,99.09
2022-12-23T22:56:31.043Z,99.06
2022-12-23T22:59:00.472Z,99.07
2022-12-23T23:01:30.507Z,99.15
2022-12-23T23:04:02.165Z,99.22
2022-12-23T23:06:32.549Z,99.23
2022-12-23T23:09:01.337Z,99.25
2022-12-23T23:11:29.890Z,99.25
2022-12-23T23:13:58.099Z,99.24
2022-12-23T23:16:27.754Z,99.22
2022-12-23T23:18:56.042Z,99.20
2022-12-23T23:21:24.303Z,99.20
2022-12-23T23:23:52.376Z,99.24
2022-12-23T23:26:21.461Z,99.20
2022-12-23T23:28:49.589Z,99.09
2022-12-23T23:31:41.229Z,98.88
2022-12-23T23:34:07.035Z,98.77
2022-12-23T23:36:35.331Z,98.65
2022-12-23T23:39:05.619Z,98.57
2022-12-23T23:41:33.781Z,98.50
2022-12-23T23:44:01.853Z,98.35
2022-12-23T23:46:31.791Z,98.01
2022-12-23T23:49:00.007Z,97.86
2022-12-23T23:51:29.432Z,97.86
2022-12-23T23:53:57.672Z,97.98
2022-12-23T23:56:27.963Z,98.31
2022-12-23T23:58:58.154Z,98.55
